sensor_id;sensor_type;location;lat;lon;timestamp;temperature;humidity
39621;DHT22;25309;48.686;9.170;2023-02-15T00:01:53;3.20;99.90
39621;DHT22;25309;48.686;9.170;2023-02-15T00:04:23;3.20;99.90
39621;DHT22;25309;48.686;9.170;2023-02-15T00:06:50;3.10;99.90
39621;DHT22;25309;48.686;9.170;2023-02-15T00:09:19;3.10;99.90
39621;DHT22;25309;48.686;9.170;2023-02-15T00:11:45;3.10;99.90
39621;DHT22;25309;48.686;9.170;2023-02-15T00:14:20;3.10;99.90
39621;DHT22;25309;48.686;9.170;2023-02-15T00:16:49;3.10;99.90
39621;DHT22;25309;48.686;9.170;2023-02-15T00:19:18;3.10;99.90
39621;DHT22;25309;48.686;9.170;2023-02-15T00:21:46;3.10;99.90
39621;DHT22;25309;48.686;9.170;2023-02-15T00:24:14;3.10;99.90
39621;DHT22;25309;48.686;9.170;2023-02-15T00:26:43;3.10;99.90
39621;DHT22;25309;48.686;9.170;2023-02-15T00:29:11;3.00;99.90
39621;DHT22;25309;48.686;9.170;2023-02-15T00:31:38;2.90;99.90
39621;DHT22;25309;48.686;9.170;2023-02-15T00:34:07;2.90;99.90
39621;DHT22;25309;48.686;9.170;2023-02-15T00:36:34;2.80;99.90
39621;DHT22;25309;48.686;9.170;2023-02-15T00:39:02;2.80;99.90
39621;DHT22;25309;48.686;9.170;2023-02-15T00:41:29;2.80;99.90
39621;DHT22;25309;48.686;9.170;2023-02-15T00:43:58;2.80;99.90
39621;DHT22;25309;48.686;9.170;2023-02-15T00:46:25;2.80;99.90
39621;DHT22;25309;48.686;9.170;2023-02-15T00:48:52;2.90;99.90
39621;DHT22;25309;48.686;9.170;2023-02-15T00:51:19;2.80;99.90
39621;DHT22;25309;48.686;9.170;2023-02-15T00:53:47;2.80;99.90
39621;DHT22;25309;48.686;9.170;2023-02-15T00:56:14;2.80;99.90
39621;DHT22;25309;48.686;9.170;2023-02-15T00:58:41;2.70;99.90
39621;DHT22;25309;48.686;9.170;2023-02-15T01:01:11;2.60;99.90
39621;DHT22;25309;48.686;9.170;2023-02-15T01:03:39;2.60;99.90
39621;DHT22;25309;48.686;9.170;2023-02-15T01:06:08;2.60;99.90
39621;DHT22;25309;48.686;9.170;2023-02-15T01:08:35;2.50;99.90
39621;DHT22;25309;48.686;9.170;2023-02-15T01:11:04;2.50;99.90
39621;DHT22;25309;48.686;9.170;2023-02-15T01:13:31;2.50;99.90
39621;DHT22;25309;48.686;9.170;2023-02-15T01:15:58;2.40;99.90
39621;DHT22;25309;48.686;9.170;2023-02-15T01:18:27;2.40;99.90
39621;DHT22;25309;48.686;9.170;2023-02-15T01:20:54;2.40;99.90
39621;DHT22;25309;48.686;9.170;2023-02-15T01:23:21;2.40;99.90
39621;DHT22;25309;48.686;9.170;2023-02-15T01:25:48;2.40;99.90
39621;DHT22;25309;48.686;9.170;2023-02-15T01:28:15;2.40;99.90
39621;DHT22;25309;48.686;9.170;2023-02-15T01:30:42;2.40;99.90
39621;DHT22;25309;48.686;9.170;2023-02-15T01:33:10;2.40;99.90
39621;DHT22;25309;48.686;9.170;2023-02-15T01:35:46;2.30;99.90
39621;DHT22;25309;48.686;9.170;2023-02-15T01:38:13;2.30;99.90
39621;DHT22;25309;48.686;9.170;2023-02-15T01:40:40;2.30;99.90
39621;DHT22;25309;48.686;9.170;2023-02-15T01:43:10;2.30;99.90
39621;DHT22;25309;48.686;9.170;2023-02-15T01:45:38;2.20;99.90
39621;DHT22;25309;48.686;9.170;2023-02-15T01:48:11;2.20;99.90
39621;DHT22;25309;48.686;9.170;2023-02-15T01:50:43;2.10;99.90
39621;DHT22;25309;48.686;9.170;2023-02-15T01:53:17;2.10;99.90
39621;DHT22;25309;48.686;9.170;2023-02-15T01:55:53;2.00;99.90
39621;DHT22;25309;48.686;9.170;2023-02-15T01:58:22;2.00;99.90
39621;DHT22;25309;48.686;9.170;2023-02-15T02:00:52;2.00;99.90
39621;DHT22;25309;48.686;9.170;2023-02-15T02:03:29;2.00;99.90
39621;DHT22;25309;48.686;9.170;2023-02-15T02:05:57;2.00;99.90
39621;DHT22;25309;48.686;9.170;2023-02-15T02:08:26;2.00;99.90
39621;DHT22;25309;48.686;9.170;2023-02-15T02:10:53;2.00;99.90
39621;DHT22;25309;48.686;9.170;2023-02-15T02:13:20;2.00;99.90
39621;DHT22;25309;48.686;9.170;2023-02-15T02:15:51;2.00;99.90
39621;DHT22;25309;48.686;9.170;2023-02-15T02:18:30;2.00;99.90
39621;DHT22;25309;48.686;9.170;2023-02-15T02:21:16;1.90;99.90
39621;DHT22;25309;48.686;9.170;2023-02-15T02:24:03;1.90;99.90
39621;DHT22;25309;48.686;9.170;2023-02-15T02:27:12;1.90;99.90
39621;DHT22;25309;48.686;9.170;2023-02-15T02:33:25;1.90;99.90
39621;DHT22;25309;48.686;9.170;2023-02-15T02:35:59;1.80;99.90
39621;DHT22;25309;48.686;9.170;2023-02-15T02:38:34;1.80;99.90
39621;DHT22;25309;48.686;9.170;2023-02-15T02:41:12;1.90;99.90
39621;DHT22;25309;48.686;9.170;2023-02-15T02:43:48;1.90;99.90
39621;DHT22;25309;48.686;9.170;2023-02-15T02:46:24;1.90;99.90
39621;DHT22;25309;48.686;9.170;2023-02-15T02:48:56;1.90;99.90
39621;DHT22;25309;48.686;9.170;2023-02-15T02:51:23;1.90;99.90
39621;DHT22;25309;48.686;9.170;2023-02-15T02:53:54;1.90;99.90
39621;DHT22;25309;48.686;9.170;2023-02-15T02:56:27;1.80;99.90
39621;DHT22;25309;48.686;9.170;2023-02-15T02:58:58;1.80;99.90
39621;DHT22;25309;48.686;9.170;2023-02-15T03:01:31;1.80;99.90
39621;DHT22;25309;48.686;9.170;2023-02-15T03:04:03;1.70;99.90
39621;DHT22;25309;48.686;9.170;2023-02-15T03:06:36;1.70;99.90
39621;DHT22;25309;48.686;9.170;2023-02-15T03:09:09;1.70;99.90
39621;DHT22;25309;48.686;9.170;2023-02-15T03:11:43;1.70;99.90
39621;DHT22;25309;48.686;9.170;2023-02-15T03:14:12;1.60;99.90
39621;DHT22;25309;48.686;9.170;2023-02-15T03:16:41;1.60;99.90
39621;DHT22;25309;48.686;9.170;2023-02-15T03:19:16;1.60;99.90
39621;DHT22;25309;48.686;9.170;2023-02-15T03:21:48;1.60;99.90
39621;DHT22;25309;48.686;9.170;2023-02-15T03:24:26;1.60;99.90
39621;DHT22;25309;48.686;9.170;2023-02-15T03:26:56;1.60;99.90
39621;DHT22;25309;48.686;9.170;2023-02-15T03:29:26;1.60;99.90
39621;DHT22;25309;48.686;9.170;2023-02-15T03:31:58;1.60;99.90
39621;DHT22;25309;48.686;9.170;2023-02-15T03:34:27;1.60;99.90
39621;DHT22;25309;48.686;9.170;2023-02-15T03:36:58;1.60;99.90
39621;DHT22;25309;48.686;9.170;2023-02-15T03:39:30;1.60;99.90
39621;DHT22;25309;48.686;9.170;2023-02-15T03:42:06;1.60;99.90
39621;DHT22;25309;48.686;9.170;2023-02-15T03:44:45;1.60;99.90
39621;DHT22;25309;48.686;9.170;2023-02-15T03:47:15;1.60;99.90
39621;DHT22;25309;48.686;9.170;2023-02-15T03:49:48;1.60;99.90
39621;DHT22;25309;48.686;9.170;2023-02-15T03:52:17;1.50;99.90
39621;DHT22;25309;48.686;9.170;2023-02-15T03:54:45;1.40;99.90
39621;DHT22;25309;48.686;9.170;2023-02-15T03:57:19;1.40;99.90
39621;DHT22;25309;48.686;9.170;2023-02-15T04:00:09;1.40;99.90
39621;DHT22;25309;48.686;9.170;2023-02-15T04:03:28;1.40;99.90
39621;DHT22;25309;48.686;9.170;2023-02-15T04:06:00;1.40;99.90
39621;DHT22;25309;48.686;9.170;2023-02-15T04:08:28;1.40;99.90
39621;DHT22;25309;48.686;9.170;2023-02-15T04:11:14;1.40;99.90
39621;DHT22;25309;48.686;9.170;2023-02-15T04:13:41;1.40;99.90
39621;DHT22;25309;48.686;9.170;2023-02-15T04:16:08;1.40;99.90
39621;DHT22;25309;48.686;9.170;2023-02-15T04:18:39;1.40;99.90
39621;DHT22;25309;48.686;9.170;2023-02-15T04:21:28;1.30;99.90
39621;DHT22;25309;48.686;9.170;2023-02-15T04:24:14;1.20;99.90
39621;DHT22;25309;48.686;9.170;2023-02-15T04:27:00;1.20;99.90
39621;DHT22;25309;48.686;9.170;2023-02-15T04:29:29;1.20;99.90
39621;DHT22;25309;48.686;9.170;2023-02-15T04:31:58;1.10;99.90
39621;DHT22;25309;48.686;9.170;2023-02-15T04:34:26;1.10;99.90
39621;DHT22;25309;48.686;9.170;2023-02-15T04:36:54;1.20;99.90
39621;DHT22;25309;48.686;9.170;2023-02-15T04:39:21;1.20;99.90
39621;DHT22;25309;48.686;9.170;2023-02-15T04:41:48;1.10;99.90
39621;DHT22;25309;48.686;9.170;2023-02-15T04:44:15;1.10;99.90
39621;DHT22;25309;48.686;9.170;2023-02-15T04:46:42;1.00;99.90
39621;DHT22;25309;48.686;9.170;2023-02-15T04:49:09;0.90;99.90
39621;DHT22;25309;48.686;9.170;2023-02-15T04:51:36;0.90;99.90
39621;DHT22;25309;48.686;9.170;2023-02-15T04:54:04;0.90;99.90
39621;DHT22;25309;48.686;9.170;2023-02-15T04:56:31;0.90;99.90
39621;DHT22;25309;48.686;9.170;2023-02-15T04:58:59;0.90;99.90
39621;DHT22;25309;48.686;9.170;2023-02-15T05:01:26;0.90;99.90
39621;DHT22;25309;48.686;9.170;2023-02-15T05:03:53;0.80;99.90
39621;DHT22;25309;48.686;9.170;2023-02-15T05:06:20;0.80;99.90
39621;DHT22;25309;48.686;9.170;2023-02-15T05:08:47;0.80;99.90
39621;DHT22;25309;48.686;9.170;2023-02-15T05:11:15;0.70;99.90
39621;DHT22;25309;48.686;9.170;2023-02-15T05:13:42;0.70;99.90
39621;DHT22;25309;48.686;9.170;2023-02-15T05:16:09;0.70;99.90
39621;DHT22;25309;48.686;9.170;2023-02-15T05:18:36;0.70;99.90
39621;DHT22;25309;48.686;9.170;2023-02-15T05:21:03;0.70;99.90
39621;DHT22;25309;48.686;9.170;2023-02-15T05:23:30;0.70;99.90
39621;DHT22;25309;48.686;9.170;2023-02-15T05:25:57;0.70;99.90
39621;DHT22;25309;48.686;9.170;2023-02-15T05:28:44;0.70;99.90
39621;DHT22;25309;48.686;9.170;2023-02-15T05:31:12;0.70;99.90
39621;DHT22;25309;48.686;9.170;2023-02-15T05:33:40;0.70;99.90
39621;DHT22;25309;48.686;9.170;2023-02-15T05:36:07;0.70;99.90
39621;DHT22;25309;48.686;9.170;2023-02-15T05:38:35;0.70;99.90
39621;DHT22;25309;48.686;9.170;2023-02-15T05:41:04;0.70;99.90
39621;DHT22;25309;48.686;9.170;2023-02-15T05:43:31;0.60;99.90
39621;DHT22;25309;48.686;9.170;2023-02-15T05:46:00;0.60;99.90
39621;DHT22;25309;48.686;9.170;2023-02-15T05:48:28;0.70;99.90
39621;DHT22;25309;48.686;9.170;2023-02-15T05:50:59;0.70;99.90
39621;DHT22;25309;48.686;9.170;2023-02-15T05:53:26;0.70;99.90
39621;DHT22;25309;48.686;9.170;2023-02-15T05:55:54;0.70;99.90
39621;DHT22;25309;48.686;9.170;2023-02-15T05:58:26;0.70;99.90
39621;DHT22;25309;48.686;9.170;2023-02-15T06:00:53;0.70;99.90
39621;DHT22;25309;48.686;9.170;2023-02-15T06:03:22;0.60;99.90
39621;DHT22;25309;48.686;9.170;2023-02-15T06:05:49;0.60;99.90
39621;DHT22;25309;48.686;9.170;2023-02-15T06:08:16;0.60;99.90
39621;DHT22;25309;48.686;9.170;2023-02-15T06:10:45;0.70;99.90
39621;DHT22;25309;48.686;9.170;2023-02-15T06:13:12;0.70;99.90
39621;DHT22;25309;48.686;9.170;2023-02-15T06:15:38;0.60;99.90
39621;DHT22;25309;48.686;9.170;2023-02-15T06:18:05;0.60;99.90
39621;DHT22;25309;48.686;9.170;2023-02-15T06:20:34;0.60;99.90
39621;DHT22;25309;48.686;9.170;2023-02-15T06:23:01;0.50;99.90
39621;DHT22;25309;48.686;9.170;2023-02-15T06:25:28;0.40;99.90
39621;DHT22;25309;48.686;9.170;2023-02-15T06:27:55;0.40;99.90
39621;DHT22;25309;48.686;9.170;2023-02-15T06:30:22;0.30;99.90
39621;DHT22;25309;48.686;9.170;2023-02-15T06:32:49;0.30;99.90
39621;DHT22;25309;48.686;9.170;2023-02-15T06:35:16;0.30;99.90
39621;DHT22;25309;48.686;9.170;2023-02-15T06:37:46;0.30;99.90
39621;DHT22;25309;48.686;9.170;2023-02-15T06:40:13;0.40;99.90
39621;DHT22;25309;48.686;9.170;2023-02-15T06:42:41;0.40;99.90
39621;DHT22;25309;48.686;9.170;2023-02-15T06:45:09;0.40;99.90
39621;DHT22;25309;48.686;9.170;2023-02-15T06:47:37;0.40;99.90
39621;DHT22;25309;48.686;9.170;2023-02-15T06:50:05;0.40;99.90
39621;DHT22;25309;48.686;9.170;2023-02-15T06:52:32;0.50;99.90
39621;DHT22;25309;48.686;9.170;2023-02-15T06:55:00;0.50;99.90
39621;DHT22;25309;48.686;9.170;2023-02-15T06:57:27;0.50;99.90
39621;DHT22;25309;48.686;9.170;2023-02-15T06:59:54;0.50;99.90
39621;DHT22;25309;48.686;9.170;2023-02-15T07:02:21;0.50;99.90
39621;DHT22;25309;48.686;9.170;2023-02-15T07:04:47;0.50;99.90
39621;DHT22;25309;48.686;9.170;2023-02-15T07:07:14;0.50;99.90
39621;DHT22;25309;48.686;9.170;2023-02-15T07:09:41;0.50;99.90
39621;DHT22;25309;48.686;9.170;2023-02-15T07:12:10;0.60;99.90
39621;DHT22;25309;48.686;9.170;2023-02-15T07:14:55;0.60;99.90
39621;DHT22;25309;48.686;9.170;2023-02-15T07:17:24;0.70;99.90
39621;DHT22;25309;48.686;9.170;2023-02-15T07:20:03;0.70;99.90
39621;DHT22;25309;48.686;9.170;2023-02-15T07:22:30;0.80;99.90
39621;DHT22;25309;48.686;9.170;2023-02-15T07:24:57;1.00;99.90
39621;DHT22;25309;48.686;9.170;2023-02-15T07:27:26;1.10;99.90
39621;DHT22;25309;48.686;9.170;2023-02-15T07:29:53;1.20;99.90
39621;DHT22;25309;48.686;9.170;2023-02-15T07:32:20;1.40;99.90
39621;DHT22;25309;48.686;9.170;2023-02-15T07:34:46;1.70;99.90
39621;DHT22;25309;48.686;9.170;2023-02-15T07:37:13;1.90;99.90
39621;DHT22;25309;48.686;9.170;2023-02-15T07:39:40;2.10;99.90
39621;DHT22;25309;48.686;9.170;2023-02-15T07:42:07;2.40;99.90
39621;DHT22;25309;48.686;9.170;2023-02-15T07:44:36;2.80;99.90
39621;DHT22;25309;48.686;9.170;2023-02-15T07:47:03;3.20;99.90
39621;DHT22;25309;48.686;9.170;2023-02-15T07:49:31;3.60;99.90
39621;DHT22;25309;48.686;9.170;2023-02-15T07:51:58;4.10;99.90
39621;DHT22;25309;48.686;9.170;2023-02-15T07:54:26;4.50;99.90
39621;DHT22;25309;48.686;9.170;2023-02-15T07:56:53;4.90;99.90
39621;DHT22;25309;48.686;9.170;2023-02-15T07:59:20;5.30;99.90
39621;DHT22;25309;48.686;9.170;2023-02-15T08:01:48;5.70;99.90
39621;DHT22;25309;48.686;9.170;2023-02-15T08:04:15;6.10;99.90
39621;DHT22;25309;48.686;9.170;2023-02-15T08:06:44;6.40;99.90
39621;DHT22;25309;48.686;9.170;2023-02-15T08:09:11;6.90;99.90
39621;DHT22;25309;48.686;9.170;2023-02-15T08:11:38;7.30;99.40
39621;DHT22;25309;48.686;9.170;2023-02-15T08:14:10;7.80;98.60
39621;DHT22;25309;48.686;9.170;2023-02-15T08:16:39;8.10;97.90
39621;DHT22;25309;48.686;9.170;2023-02-15T08:19:09;8.30;97.50
39621;DHT22;25309;48.686;9.170;2023-02-15T08:21:39;8.50;97.00
39621;DHT22;25309;48.686;9.170;2023-02-15T08:24:08;8.60;97.20
39621;DHT22;25309;48.686;9.170;2023-02-15T08:26:36;8.90;97.90
39621;DHT22;25309;48.686;9.170;2023-02-15T08:29:06;9.30;97.00
39621;DHT22;25309;48.686;9.170;2023-02-15T08:31:34;9.70;96.20
39621;DHT22;25309;48.686;9.170;2023-02-15T08:34:02;10.00;95.80
39621;DHT22;25309;48.686;9.170;2023-02-15T08:36:31;10.40;95.10
39621;DHT22;25309;48.686;9.170;2023-02-15T08:38:59;10.70;94.40
39621;DHT22;25309;48.686;9.170;2023-02-15T08:41:28;11.10;93.80
39621;DHT22;25309;48.686;9.170;2023-02-15T08:43:58;11.30;93.50
39621;DHT22;25309;48.686;9.170;2023-02-15T08:46:27;11.60;93.30
39621;DHT22;25309;48.686;9.170;2023-02-15T08:48:54;12.00;92.90
39621;DHT22;25309;48.686;9.170;2023-02-15T08:51:23;12.20;92.60
39621;DHT22;25309;48.686;9.170;2023-02-15T08:53:54;12.40;92.10
39621;DHT22;25309;48.686;9.170;2023-02-15T08:56:23;12.60;92.50
39621;DHT22;25309;48.686;9.170;2023-02-15T08:58:50;13.00;91.70
39621;DHT22;25309;48.686;9.170;2023-02-15T09:01:20;13.30;91.20
39621;DHT22;25309;48.686;9.170;2023-02-15T09:03:49;13.60;91.10
39621;DHT22;25309;48.686;9.170;2023-02-15T09:06:17;14.00;90.70
39621;DHT22;25309;48.686;9.170;2023-02-15T09:08:44;14.30;90.10
39621;DHT22;25309;48.686;9.170;2023-02-15T09:11:14;14.60;89.90
39621;DHT22;25309;48.686;9.170;2023-02-15T09:13:51;14.80;89.60
39621;DHT22;25309;48.686;9.170;2023-02-15T09:16:18;15.10;88.00
39621;DHT22;25309;48.686;9.170;2023-02-15T09:18:45;14.80;87.10
39621;DHT22;25309;48.686;9.170;2023-02-15T09:21:13;14.80;87.60
39621;DHT22;25309;48.686;9.170;2023-02-15T09:23:41;14.70;87.80
39621;DHT22;25309;48.686;9.170;2023-02-15T09:26:10;15.00;88.40
39621;DHT22;25309;48.686;9.170;2023-02-15T09:28:39;15.40;87.60
39621;DHT22;25309;48.686;9.170;2023-02-15T09:31:10;15.90;87.50
39621;DHT22;25309;48.686;9.170;2023-02-15T09:33:38;16.30;85.20
39621;DHT22;25309;48.686;9.170;2023-02-15T09:36:14;16.50;85.20
39621;DHT22;25309;48.686;9.170;2023-02-15T09:38:41;16.90;83.60
39621;DHT22;25309;48.686;9.170;2023-02-15T09:41:22;17.30;83.10
39621;DHT22;25309;48.686;9.170;2023-02-15T09:44:01;17.20;82.80
39621;DHT22;25309;48.686;9.170;2023-02-15T09:46:52;17.10;82.30
39621;DHT22;25309;48.686;9.170;2023-02-15T09:49:27;17.10;80.90
39621;DHT22;25309;48.686;9.170;2023-02-15T09:52:07;17.00;80.80
39621;DHT22;25309;48.686;9.170;2023-02-15T09:54:49;17.10;79.70
39621;DHT22;25309;48.686;9.170;2023-02-15T09:57:24;17.10;80.00
39621;DHT22;25309;48.686;9.170;2023-02-15T10:00:02;17.00;80.10
39621;DHT22;25309;48.686;9.170;2023-02-15T10:02:48;16.80;80.50
39621;DHT22;25309;48.686;9.170;2023-02-15T10:05:28;16.00;82.10
39621;DHT22;25309;48.686;9.170;2023-02-15T10:08:20;15.90;85.00
39621;DHT22;25309;48.686;9.170;2023-02-15T10:11:00;15.90;83.20
39621;DHT22;25309;48.686;9.170;2023-02-15T10:13:59;15.50;84.10
39621;DHT22;25309;48.686;9.170;2023-02-15T10:16:37;15.20;83.60
39621;DHT22;25309;48.686;9.170;2023-02-15T10:19:11;14.80;85.30
39621;DHT22;25309;48.686;9.170;2023-02-15T10:21:50;14.80;86.40
39621;DHT22;25309;48.686;9.170;2023-02-15T10:27:21;14.80;85.40
39621;DHT22;25309;48.686;9.170;2023-02-15T10:29:58;14.60;85.90
39621;DHT22;25309;48.686;9.170;2023-02-15T10:32:35;14.80;85.90
39621;DHT22;25309;48.686;9.170;2023-02-15T10:35:13;15.00;85.30
39621;DHT22;25309;48.686;9.170;2023-02-15T10:37:53;14.90;85.50
39621;DHT22;25309;48.686;9.170;2023-02-15T10:40:28;15.20;86.40
39621;DHT22;25309;48.686;9.170;2023-02-15T10:43:16;15.30;85.00
39621;DHT22;25309;48.686;9.170;2023-02-15T10:45:53;15.40;86.00
39621;DHT22;25309;48.686;9.170;2023-02-15T10:48:39;15.50;85.00
39621;DHT22;25309;48.686;9.170;2023-02-15T10:51:13;15.50;85.20
39621;DHT22;25309;48.686;9.170;2023-02-15T10:56:35;15.90;86.40
39621;DHT22;25309;48.686;9.170;2023-02-15T10:59:17;15.90;84.80
39621;DHT22;25309;48.686;9.170;2023-02-15T11:01:51;16.10;85.50
39621;DHT22;25309;48.686;9.170;2023-02-15T11:04:46;16.30;85.60
39621;DHT22;25309;48.686;9.170;2023-02-15T11:07:17;16.60;84.80
39621;DHT22;25309;48.686;9.170;2023-02-15T11:09:49;16.80;84.10
39621;DHT22;25309;48.686;9.170;2023-02-15T11:12:19;16.90;83.10
39621;DHT22;25309;48.686;9.170;2023-02-15T11:14:51;17.00;82.20
39621;DHT22;25309;48.686;9.170;2023-02-15T11:17:23;17.00;83.30
39621;DHT22;25309;48.686;9.170;2023-02-15T11:19:59;17.10;82.20
39621;DHT22;25309;48.686;9.170;2023-02-15T11:22:30;16.90;82.00
39621;DHT22;25309;48.686;9.170;2023-02-15T11:25:00;17.00;82.60
39621;DHT22;25309;48.686;9.170;2023-02-15T11:27:30;17.10;82.50
39621;DHT22;25309;48.686;9.170;2023-02-15T11:30:01;17.30;81.70
39621;DHT22;25309;48.686;9.170;2023-02-15T11:32:32;17.40;82.20
39621;DHT22;25309;48.686;9.170;2023-02-15T11:35:03;17.60;81.80
39621;DHT22;25309;48.686;9.170;2023-02-15T11:37:35;17.70;80.60
39621;DHT22;25309;48.686;9.170;2023-02-15T11:40:15;17.70;80.50
39621;DHT22;25309;48.686;9.170;2023-02-15T11:42:46;17.80;80.80
39621;DHT22;25309;48.686;9.170;2023-02-15T11:45:25;17.90;80.00
39621;DHT22;25309;48.686;9.170;2023-02-15T11:47:53;17.70;78.50
39621;DHT22;25309;48.686;9.170;2023-02-15T11:50:23;17.60;78.70
39621;DHT22;25309;48.686;9.170;2023-02-15T11:52:52;17.60;79.20
39621;DHT22;25309;48.686;9.170;2023-02-15T11:55:23;17.50;78.80
39621;DHT22;25309;48.686;9.170;2023-02-15T11:57:54;17.50;79.10
39621;DHT22;25309;48.686;9.170;2023-02-15T12:00:31;17.60;78.80
39621;DHT22;25309;48.686;9.170;2023-02-15T12:03:09;17.80;78.20
39621;DHT22;25309;48.686;9.170;2023-02-15T12:05:43;18.00;79.00
39621;DHT22;25309;48.686;9.170;2023-02-15T12:08:16;18.20;78.10
39621;DHT22;25309;48.686;9.170;2023-02-15T12:10:51;18.20;76.90
39621;DHT22;25309;48.686;9.170;2023-02-15T12:13:22;18.30;79.00
39621;DHT22;25309;48.686;9.170;2023-02-15T12:15:51;18.40;76.20
39621;DHT22;25309;48.686;9.170;2023-02-15T12:18:33;18.30;77.50
39621;DHT22;25309;48.686;9.170;2023-02-15T12:21:07;18.00;76.90
39621;DHT22;25309;48.686;9.170;2023-02-15T12:23:39;17.70;77.70
39621;DHT22;25309;48.686;9.170;2023-02-15T12:26:08;17.70;79.40
39621;DHT22;25309;48.686;9.170;2023-02-15T12:28:38;17.90;78.10
39621;DHT22;25309;48.686;9.170;2023-02-15T12:31:10;18.10;78.70
39621;DHT22;25309;48.686;9.170;2023-02-15T12:33:46;18.20;78.50
39621;DHT22;25309;48.686;9.170;2023-02-15T12:36:18;18.30;78.10
39621;DHT22;25309;48.686;9.170;2023-02-15T12:39:02;18.60;77.20
39621;DHT22;25309;48.686;9.170;2023-02-15T12:41:29;18.80;76.70
39621;DHT22;25309;48.686;9.170;2023-02-15T12:44:05;19.00;75.70
39621;DHT22;25309;48.686;9.170;2023-02-15T12:46:33;19.00;75.40
39621;DHT22;25309;48.686;9.170;2023-02-15T12:49:16;19.10;75.20
39621;DHT22;25309;48.686;9.170;2023-02-15T12:51:50;19.00;75.10
39621;DHT22;25309;48.686;9.170;2023-02-15T12:54:31;19.00;75.50
39621;DHT22;25309;48.686;9.170;2023-02-15T12:56:59;19.00;75.00
39621;DHT22;25309;48.686;9.170;2023-02-15T12:59:26;19.00;75.70
39621;DHT22;25309;48.686;9.170;2023-02-15T13:01:53;19.00;74.70
39621;DHT22;25309;48.686;9.170;2023-02-15T13:04:23;18.80;74.60
39621;DHT22;25309;48.686;9.170;2023-02-15T13:06:54;18.60;75.60
39621;DHT22;25309;48.686;9.170;2023-02-15T13:09:26;18.50;75.60
39621;DHT22;25309;48.686;9.170;2023-02-15T13:12:10;18.70;75.00
39621;DHT22;25309;48.686;9.170;2023-02-15T13:14:43;18.90;74.50
39621;DHT22;25309;48.686;9.170;2023-02-15T13:17:11;18.90;75.00
39621;DHT22;25309;48.686;9.170;2023-02-15T13:19:42;19.00;75.10
39621;DHT22;25309;48.686;9.170;2023-02-15T13:22:15;18.90;74.90
39621;DHT22;25309;48.686;9.170;2023-02-15T13:24:46;18.80;73.50
39621;DHT22;25309;48.686;9.170;2023-02-15T13:27:16;18.50;74.70
39621;DHT22;25309;48.686;9.170;2023-02-15T13:29:46;18.50;76.00
39621;DHT22;25309;48.686;9.170;2023-02-15T13:32:22;18.40;75.90
39621;DHT22;25309;48.686;9.170;2023-02-15T13:34:52;18.20;76.80
39621;DHT22;25309;48.686;9.170;2023-02-15T13:37:37;18.20;76.90
39621;DHT22;25309;48.686;9.170;2023-02-15T13:40:13;18.50;77.70
39621;DHT22;25309;48.686;9.170;2023-02-15T13:42:46;18.70;75.50
39621;DHT22;25309;48.686;9.170;2023-02-15T13:45:28;18.60;75.30
39621;DHT22;25309;48.686;9.170;2023-02-15T13:48:02;18.80;76.30
39621;DHT22;25309;48.686;9.170;2023-02-15T13:50:59;19.10;74.80
39621;DHT22;25309;48.686;9.170;2023-02-15T13:56:26;18.20;75.20
39621;DHT22;25309;48.686;9.170;2023-02-15T13:59:12;17.60;76.60
39621;DHT22;25309;48.686;9.170;2023-02-15T14:01:46;17.40;77.20
39621;DHT22;25309;48.686;9.170;2023-02-15T14:04:35;17.50;76.40
39621;DHT22;25309;48.686;9.170;2023-02-15T14:07:20;17.80;76.70
39621;DHT22;25309;48.686;9.170;2023-02-15T14:09:56;17.80;74.10
39621;DHT22;25309;48.686;9.170;2023-02-15T14:12:35;17.80;74.10
39621;DHT22;25309;48.686;9.170;2023-02-15T14:15:28;17.70;74.50
39621;DHT22;25309;48.686;9.170;2023-02-15T14:18:05;17.70;72.80
39621;DHT22;25309;48.686;9.170;2023-02-15T14:20:44;17.50;72.40
39621;DHT22;25309;48.686;9.170;2023-02-15T14:23:22;17.10;72.10
39621;DHT22;25309;48.686;9.170;2023-02-15T14:25:59;16.80;73.30
39621;DHT22;25309;48.686;9.170;2023-02-15T14:28:34;16.60;75.00
39621;DHT22;25309;48.686;9.170;2023-02-15T14:31:04;16.90;75.10
39621;DHT22;25309;48.686;9.170;2023-02-15T14:33:37;17.30;74.20
39621;DHT22;25309;48.686;9.170;2023-02-15T14:36:07;17.70;73.50
39621;DHT22;25309;48.686;9.170;2023-02-15T14:38:47;17.90;71.10
39621;DHT22;25309;48.686;9.170;2023-02-15T14:41:19;17.80;70.20
39621;DHT22;25309;48.686;9.170;2023-02-15T14:43:56;17.60;70.40
39621;DHT22;25309;48.686;9.170;2023-02-15T14:46:31;17.50;71.40
39621;DHT22;25309;48.686;9.170;2023-02-15T14:49:06;17.50;70.30
39621;DHT22;25309;48.686;9.170;2023-02-15T14:51:54;17.30;71.10
39621;DHT22;25309;48.686;9.170;2023-02-15T14:54:58;17.30;72.20
39621;DHT22;25309;48.686;9.170;2023-02-15T14:57:31;17.40;73.20
39621;DHT22;25309;48.686;9.170;2023-02-15T15:00:30;17.60;73.30
39621;DHT22;25309;48.686;9.170;2023-02-15T15:02:59;17.70;73.50
39621;DHT22;25309;48.686;9.170;2023-02-15T15:05:33;17.60;73.10
39621;DHT22;25309;48.686;9.170;2023-02-15T15:08:02;17.30;73.50
39621;DHT22;25309;48.686;9.170;2023-02-15T15:10:39;17.20;74.20
39621;DHT22;25309;48.686;9.170;2023-02-15T15:13:37;17.00;74.70
39621;DHT22;25309;48.686;9.170;2023-02-15T15:16:24;16.80;75.60
39621;DHT22;25309;48.686;9.170;2023-02-15T15:18:52;16.80;75.90
39621;DHT22;25309;48.686;9.170;2023-02-15T15:21:53;16.80;75.30
39621;DHT22;25309;48.686;9.170;2023-02-15T15:24:46;16.90;76.10
39621;DHT22;25309;48.686;9.170;2023-02-15T15:27:38;16.90;75.90
39621;DHT22;25309;48.686;9.170;2023-02-15T15:33:27;16.60;76.40
39621;DHT22;25309;48.686;9.170;2023-02-15T15:36:11;16.30;77.20
39621;DHT22;25309;48.686;9.170;2023-02-15T15:38:51;16.10;78.40
39621;DHT22;25309;48.686;9.170;2023-02-15T15:41:38;16.00;79.10
39621;DHT22;25309;48.686;9.170;2023-02-15T15:47:34;16.10;78.00
39621;DHT22;25309;48.686;9.170;2023-02-15T15:50:13;16.10;77.10
39621;DHT22;25309;48.686;9.170;2023-02-15T15:52:43;16.00;77.70
39621;DHT22;25309;48.686;9.170;2023-02-15T15:55:16;15.90;78.10
39621;DHT22;25309;48.686;9.170;2023-02-15T15:57:46;15.80;78.30
39621;DHT22;25309;48.686;9.170;2023-02-15T16:00:32;15.70;78.60
39621;DHT22;25309;48.686;9.170;2023-02-15T16:03:00;15.60;79.40
39621;DHT22;25309;48.686;9.170;2023-02-15T16:05:35;15.60;79.70
39621;DHT22;25309;48.686;9.170;2023-02-15T16:08:02;15.50;79.70
39621;DHT22;25309;48.686;9.170;2023-02-15T16:10:30;15.40;79.70
39621;DHT22;25309;48.686;9.170;2023-02-15T16:13:01;15.30;80.00
39621;DHT22;25309;48.686;9.170;2023-02-15T16:15:34;15.20;80.10
39621;DHT22;25309;48.686;9.170;2023-02-15T16:18:02;15.20;79.80
39621;DHT22;25309;48.686;9.170;2023-02-15T16:20:32;15.10;80.10
39621;DHT22;25309;48.686;9.170;2023-02-15T16:23:16;14.90;80.20
39621;DHT22;25309;48.686;9.170;2023-02-15T16:25:54;14.90;80.00
39621;DHT22;25309;48.686;9.170;2023-02-15T16:28:23;14.70;80.10
39621;DHT22;25309;48.686;9.170;2023-02-15T16:31:04;14.50;80.10
39621;DHT22;25309;48.686;9.170;2023-02-15T16:33:35;14.40;80.40